SAOC/RCU METAR and TAF weather

Enter ICAO airport designator
Station Type Date Time Source
SAOC METAR 2019/12/08 03:00 UTC NOAA

SAOC 080300Z 18004KT 9999 SCT020 FEW040CB BKN100 19/10 Q1014 RMK CB OBS TO SE


Station Type Date Time Source
SAOC Decoded METAR 2019/12/08 03:00 UTC NOAA

Rio Cuarto Aerodrome, Argentina (SAOC) 33-07S 064-14W 421M
Dec 07, 2019 - 10:00 PM EST / 2019.12.08 0300 UTC
Wind: from the S (180 degrees) at 5 MPH (4 KT):0
Visibility: greater than 7 mile(s):0
Sky conditions: mostly cloudy
Weather: Cumulonimbus clouds observed
Temperature: 66 F (19 C)
Dew Point: 50 F (10 C)
Relative Humidity: 55%
Pressure (altimeter): 29.94 in. Hg (1014 hPa)
ob: SAOC 080300Z 18004KT 9999 SCT020 FEW040CB BKN100 19/10 Q1014 RMK CB OBS TO SE
cycle: 3

Station Type Date Time Source
SAOC TAF 2019/11/17 12:03 UTC NOAA

TAF TAF SAOC 171100Z 1712/1812 05015KT 9999 SCT030 FEW040CB TX32/1718Z TN21/1810Z
BECMG 1806/1809 02010 9999 FEW040

Example: see airport list